Terminal Aerodrome Forecast
Issued by NWS Mobile, AL

Home | Current Version | Previous Version | Text Only | Print | Product List | Glossary On
Versions: 1 2 3 4 5 6 7 8 9 10 11 12
000
FTUS44 KMOB 270528
TAFPNS
TAF
KPNS 270528Z 2706/2806 16007KT P6SM FEW017 SCT022
     FM271000 14005KT 6SM BR SCT050 BKN100 OVC250
     FM271500 16014G20KT P6SM SCT050 SCT100 BKN250
     FM272300 15008KT P6SM BKN250=

USA.gov is the U.S. government's official web portal to all federal, state and local government web resources and services.